createdAt,value
2022-12-06T00:02:01.259Z,5.32
2022-12-06T00:04:29.122Z,5.65
2022-12-06T00:06:58.356Z,5.12
2022-12-06T00:09:27.736Z,5.34
2022-12-06T00:11:57.436Z,5.57
2022-12-06T00:14:26.485Z,5.14
2022-12-06T00:16:54.367Z,5.44
2022-12-06T00:19:23.693Z,5.51
2022-12-06T00:21:51.551Z,5.85
2022-12-06T00:24:21.506Z,5.75
2022-12-06T00:26:50.175Z,5.99
2022-12-06T00:29:21.389Z,6.17
2022-12-06T00:31:49.423Z,6.24
2022-12-06T00:34:17.522Z,6.22
2022-12-06T00:36:45.399Z,6.31
2022-12-06T00:39:14.304Z,6.06
2022-12-06T00:41:42.518Z,5.72
2022-12-06T00:44:10.526Z,5.38
2022-12-06T00:46:40.274Z,5.85
2022-12-06T00:49:09.449Z,6.14
2022-12-06T00:51:37.995Z,6.28
2022-12-06T00:54:06.224Z,6.17
2022-12-06T00:56:35.872Z,6.11
2022-12-06T00:59:03.807Z,6.11
2022-12-06T01:01:33.296Z,5.50
2022-12-06T01:04:04.704Z,5.64
2022-12-06T01:06:34.665Z,5.86
2022-12-06T01:09:05.048Z,5.76
2022-12-06T01:11:43.260Z,6.10
2022-12-06T01:14:11.036Z,5.79
2022-12-06T01:16:39.759Z,5.91
2022-12-06T01:19:09.248Z,5.58
2022-12-06T01:21:37.024Z,5.95
2022-12-06T01:24:05.191Z,6.06
2022-12-06T01:26:34.587Z,6.17
2022-12-06T01:29:02.644Z,6.20
2022-12-06T01:31:37.730Z,6.22
2022-12-06T01:34:13.928Z,5.96
2022-12-06T01:36:41.748Z,6.24
2022-12-06T01:39:10.650Z,6.00
2022-12-06T01:41:39.887Z,6.04
2022-12-06T01:44:08.651Z,5.30
2022-12-06T01:46:39.406Z,5.68
2022-12-06T01:49:14.407Z,6.08
2022-12-06T01:51:45.199Z,6.34
2022-12-06T01:54:15.211Z,6.42
2022-12-06T01:56:43.401Z,6.48
2022-12-06T01:59:11.711Z,6.24
2022-12-06T02:01:40.529Z,6.34
2022-12-06T02:04:10.066Z,6.51
2022-12-06T02:06:38.497Z,6.48
2022-12-06T02:09:08.300Z,6.08
2022-12-06T02:11:36.419Z,6.06
2022-12-06T02:14:06.243Z,6.23
2022-12-06T02:16:44.035Z,6.22
2022-12-06T02:19:31.259Z,6.25
2022-12-06T02:22:07.311Z,6.07
2022-12-06T02:24:50.083Z,5.73
2022-12-06T02:27:31.363Z,6.09
2022-12-06T02:30:08.845Z,6.25
2022-12-06T02:32:44.073Z,6.09
2022-12-06T02:35:16.398Z,6.03
2022-12-06T02:37:48.127Z,5.57
2022-12-06T02:40:19.147Z,5.77
2022-12-06T02:42:49.479Z,5.95
2022-12-06T02:45:20.419Z,5.83
2022-12-06T02:47:50.679Z,5.78
2022-12-06T02:50:21.315Z,6.00
2022-12-06T02:52:51.077Z,6.00
2022-12-06T02:55:19.412Z,6.18
2022-12-06T02:57:48.828Z,5.92
2022-12-06T03:00:36.036Z,5.90
2022-12-06T03:03:30.853Z,6.05
2022-12-06T03:06:23.363Z,5.88
2022-12-06T03:08:58.196Z,5.95
2022-12-06T03:11:27.554Z,6.00
2022-12-06T03:13:57.925Z,5.79
2022-12-06T03:16:28.927Z,5.95
2022-12-06T03:19:01.012Z,6.35
2022-12-06T03:21:31.732Z,6.55
2022-12-06T03:23:59.732Z,6.56
2022-12-06T03:26:29.303Z,6.73
2022-12-06T03:29:00.639Z,6.81
2022-12-06T03:31:30.867Z,6.58
2022-12-06T03:34:03.165Z,6.87
2022-12-06T03:36:32.475Z,6.68
2022-12-06T03:39:03.219Z,6.32
2022-12-06T03:41:33.278Z,6.58
2022-12-06T03:44:01.156Z,6.66
2022-12-06T03:46:32.437Z,6.74
2022-12-06T03:49:03.421Z,6.85
2022-12-06T03:51:33.732Z,6.87
2022-12-06T03:54:04.248Z,6.94
2022-12-06T03:56:32.461Z,6.57
2022-12-06T03:59:00.358Z,6.74
2022-12-06T04:01:28.303Z,6.52
2022-12-06T04:03:56.205Z,6.61
2022-12-06T04:06:25.444Z,6.71
2022-12-06T04:08:53.536Z,6.75
2022-12-06T04:11:21.741Z,6.65
2022-12-06T04:13:49.514Z,6.81
2022-12-06T04:16:35.055Z,6.98
2022-12-06T04:19:02.841Z,7.14
2022-12-06T04:21:49.461Z,6.51
2022-12-06T04:24:17.244Z,6.58
2022-12-06T04:26:44.963Z,6.91
2022-12-06T04:29:30.244Z,7.02
2022-12-06T04:32:15.443Z,6.87
2022-12-06T04:35:00.871Z,6.85
2022-12-06T04:37:47.504Z,7.09
2022-12-06T04:40:15.384Z,7.22
2022-12-06T04:43:00.440Z,7.00
2022-12-06T04:45:28.241Z,6.95
2022-12-06T04:47:56.117Z,7.04
2022-12-06T04:50:23.870Z,7.25
2022-12-06T04:52:53.033Z,7.28
2022-12-06T04:55:20.831Z,7.33
2022-12-06T04:57:48.614Z,7.45
2022-12-06T05:00:17.108Z,7.44
2022-12-06T05:02:44.895Z,7.19
2022-12-06T05:05:12.833Z,7.01
2022-12-06T05:07:40.662Z,6.91
2022-12-06T05:10:10.606Z,7.12
2022-12-06T05:12:38.368Z,7.28
2022-12-06T05:15:06.679Z,7.40
2022-12-06T05:17:34.403Z,7.21
2022-12-06T05:20:02.447Z,7.28
2022-12-06T05:22:33.681Z,7.24
2022-12-06T05:25:01.475Z,7.24
2022-12-06T05:27:35.671Z,6.90
2022-12-06T05:30:04.577Z,6.99
2022-12-06T05:32:32.434Z,6.83
2022-12-06T05:35:00.257Z,6.34
2022-12-06T05:37:28.009Z,6.35
2022-12-06T05:39:55.889Z,6.51
2022-12-06T05:42:23.701Z,6.78
2022-12-06T05:44:53.016Z,6.83
2022-12-06T05:47:20.865Z,6.65
2022-12-06T05:49:48.621Z,6.87
2022-12-06T05:52:16.506Z,7.19
2022-12-06T05:54:44.287Z,7.14
2022-12-06T05:57:12.124Z,7.39
2022-12-06T05:59:39.902Z,7.35
2022-12-06T06:02:09.613Z,7.47
2022-12-06T06:04:37.497Z,7.29
2022-12-06T06:07:05.280Z,7.25
2022-12-06T06:09:33.092Z,7.24
2022-12-06T06:12:00.830Z,7.49
2022-12-06T06:14:28.606Z,7.45
2022-12-06T06:16:56.534Z,7.43
2022-12-06T06:19:26.028Z,7.38
2022-12-06T06:21:53.827Z,7.20
2022-12-06T06:24:21.825Z,7.21
2022-12-06T06:26:56.559Z,7.11
2022-12-06T06:29:25.187Z,6.84
2022-12-06T06:31:53.038Z,7.29
2022-12-06T06:34:20.959Z,7.34
2022-12-06T06:36:50.116Z,7.43
2022-12-06T06:39:18.355Z,6.88
2022-12-06T06:41:46.610Z,7.10
2022-12-06T06:44:14.985Z,7.29
2022-12-06T06:46:42.728Z,7.14
2022-12-06T06:49:10.540Z,7.42
2022-12-06T06:51:38.326Z,7.41
2022-12-06T06:54:07.580Z,7.34
2022-12-06T06:56:35.398Z,7.40
2022-12-06T06:59:03.195Z,7.51
2022-12-06T07:01:31.105Z,7.47
2022-12-06T07:03:59.028Z,7.38
2022-12-06T07:06:26.879Z,7.47
2022-12-06T07:08:54.640Z,7.53
2022-12-06T07:11:24.308Z,7.65
2022-12-06T07:13:52.906Z,7.61
2022-12-06T07:16:21.206Z,7.74
2022-12-06T07:18:49.231Z,7.71
2022-12-06T07:21:17.852Z,7.81
2022-12-06T07:23:45.933Z,7.77
2022-12-06T07:26:15.665Z,7.29
2022-12-06T07:28:46.012Z,7.62
2022-12-06T07:31:15.510Z,7.64
2022-12-06T07:33:44.264Z,7.62
2022-12-06T07:36:13.808Z,7.82
2022-12-06T07:38:42.555Z,7.94
2022-12-06T07:41:26.200Z,8.00
2022-12-06T07:44:15.165Z,7.91
2022-12-06T07:46:43.403Z,7.65
2022-12-06T07:49:11.411Z,7.47
2022-12-06T07:51:40.090Z,7.52
2022-12-06T07:54:07.973Z,7.25
2022-12-06T07:56:35.790Z,7.09
2022-12-06T07:59:05.004Z,7.34
2022-12-06T08:01:33.195Z,7.46
2022-12-06T08:04:01.280Z,7.45
2022-12-06T08:06:29.242Z,7.18
2022-12-06T08:08:56.987Z,7.33
2022-12-06T08:11:25.021Z,7.56
2022-12-06T08:13:52.805Z,7.89
2022-12-06T08:16:21.983Z,7.59
2022-12-06T08:18:49.912Z,7.51
2022-12-06T08:21:18.628Z,7.29
2022-12-06T08:23:46.417Z,7.31
2022-12-06T08:26:18.732Z,7.78
2022-12-06T08:28:46.697Z,7.74
2022-12-06T08:31:16.361Z,7.60
2022-12-06T08:33:45.605Z,7.75
2022-12-06T08:36:15.304Z,7.99
2022-12-06T08:38:43.460Z,8.21
2022-12-06T08:41:32.221Z,8.15
2022-12-06T08:44:01.276Z,7.78
2022-12-06T08:46:30.092Z,7.89
2022-12-06T08:48:59.299Z,7.79
2022-12-06T08:51:27.166Z,8.24
2022-12-06T08:53:55.879Z,8.06
2022-12-06T08:56:24.773Z,7.93
2022-12-06T08:58:53.901Z,7.93
2022-12-06T09:01:24.133Z,8.17
2022-12-06T09:03:52.013Z,8.33
2022-12-06T09:06:23.336Z,8.19
2022-12-06T09:08:51.451Z,8.22
2022-12-06T09:11:20.496Z,8.21
2022-12-06T09:13:48.270Z,8.19
2022-12-06T09:16:17.625Z,8.04
2022-12-06T09:18:46.593Z,7.94
2022-12-06T09:21:16.093Z,8.04
2022-12-06T09:23:45.501Z,8.32
2022-12-06T09:26:13.790Z,8.57
2022-12-06T09:28:43.390Z,8.55
2022-12-06T09:31:11.606Z,8.57
2022-12-06T09:33:39.719Z,8.67
2022-12-06T09:36:11.168Z,8.69
2022-12-06T09:38:40.533Z,8.34
2022-12-06T09:41:28.996Z,8.56
2022-12-06T09:44:06.509Z,8.91
2022-12-06T09:46:50.244Z,8.92
2022-12-06T09:49:29.884Z,9.13
2022-12-06T09:52:23.929Z,9.19
2022-12-06T09:55:01.111Z,9.53
2022-12-06T09:57:35.491Z,9.05
2022-12-06T10:00:11.365Z,8.82
2022-12-06T10:03:10.569Z,9.05
2022-12-06T10:05:48.080Z,9.03
2022-12-06T10:08:27.109Z,9.04
2022-12-06T10:10:59.291Z,8.86
2022-12-06T10:13:42.230Z,8.62
2022-12-06T10:16:15.360Z,8.74
2022-12-06T10:18:54.591Z,9.12
2022-12-06T10:21:29.117Z,9.19
2022-12-06T10:24:06.962Z,9.38
2022-12-06T10:26:40.347Z,9.45
2022-12-06T10:29:18.299Z,8.68
2022-12-06T10:31:55.387Z,9.07
2022-12-06T10:34:27.184Z,9.18
2022-12-06T10:37:00.181Z,9.51
2022-12-06T10:39:32.777Z,9.31
2022-12-06T10:42:03.593Z,8.84
2022-12-06T10:44:36.283Z,9.21
2022-12-06T10:47:07.094Z,9.32
2022-12-06T10:49:47.582Z,9.06
2022-12-06T10:52:21.717Z,9.03
2022-12-06T10:54:58.025Z,9.39
2022-12-06T10:57:31.302Z,9.46
2022-12-06T11:00:04.685Z,9.47
2022-12-06T11:02:39.765Z,9.40
2022-12-06T11:05:16.202Z,8.78
2022-12-06T11:07:46.762Z,9.10
2022-12-06T11:10:21.184Z,9.19
2022-12-06T11:12:50.368Z,9.37
2022-12-06T11:15:24.445Z,8.91
2022-12-06T11:18:00.858Z,9.29
2022-12-06T11:20:31.310Z,9.48
2022-12-06T11:23:07.157Z,9.51
2022-12-06T11:25:42.036Z,9.52
2022-12-06T11:28:21.767Z,9.62
2022-12-06T11:30:53.236Z,9.79
2022-12-06T11:33:23.203Z,9.94
2022-12-06T11:35:51.225Z,10.11
2022-12-06T11:38:19.213Z,9.50
2022-12-06T11:40:48.180Z,10.01
2022-12-06T11:43:18.721Z,10.11
2022-12-06T11:45:47.273Z,10.12
2022-12-06T11:48:18.085Z,10.38
2022-12-06T11:50:47.974Z,10.46
2022-12-06T11:53:25.217Z,10.34
2022-12-06T11:55:54.950Z,10.44
2022-12-06T11:58:28.052Z,10.37
2022-12-06T12:00:58.580Z,10.89
2022-12-06T12:03:32.933Z,11.07
2022-12-06T12:06:25.020Z,10.79
2022-12-06T12:08:56.810Z,10.83
2022-12-06T12:11:27.547Z,10.17
2022-12-06T12:13:57.556Z,10.19
2022-12-06T12:16:27.225Z,10.38
2022-12-06T12:19:01.845Z,10.41
2022-12-06T12:21:32.530Z,10.40
2022-12-06T12:24:00.562Z,10.45
2022-12-06T12:26:37.560Z,10.12
2022-12-06T12:29:13.726Z,10.46
2022-12-06T12:31:48.077Z,10.38
2022-12-06T12:34:21.450Z,10.48
2022-12-06T12:36:51.596Z,10.01
2022-12-06T12:39:30.195Z,10.27
2022-12-06T12:41:58.124Z,9.43
2022-12-06T12:44:37.580Z,9.66
2022-12-06T12:47:16.789Z,9.86
2022-12-06T12:50:01.013Z,9.87
2022-12-06T12:52:30.626Z,9.92
2022-12-06T12:55:04.235Z,9.97
2022-12-06T12:57:32.147Z,9.71
2022-12-06T12:59:59.897Z,9.87
2022-12-06T13:02:30.147Z,9.62
2022-12-06T13:05:32.718Z,9.26
2022-12-06T13:07:50.998Z,10.04
2022-12-06T13:10:22.375Z,10.07
2022-12-06T13:12:51.950Z,10.36
2022-12-06T13:15:22.318Z,10.20
2022-12-06T13:17:59.270Z,9.56
2022-12-06T13:20:31.689Z,9.60
2022-12-06T13:23:01.732Z,9.69
2022-12-06T13:25:29.649Z,9.25
2022-12-06T13:28:04.983Z,9.41
2022-12-06T13:30:35.331Z,10.06
2022-12-06T13:33:06.043Z,10.33
2022-12-06T13:35:38.556Z,10.05
2022-12-06T13:38:26.798Z,9.88
2022-12-06T13:40:55.403Z,9.59
2022-12-06T13:43:57.148Z,9.13
2022-12-06T13:46:30.237Z,9.77
2022-12-06T13:48:59.090Z,10.12
2022-12-06T13:51:45.933Z,10.52
2022-12-06T13:54:32.236Z,10.84
2022-12-06T13:57:01.325Z,10.69
2022-12-06T13:59:39.184Z,10.57
2022-12-06T14:02:53.069Z,10.57
2022-12-06T14:08:32.770Z,10.15
2022-12-06T14:11:15.872Z,10.14
2022-12-06T14:13:45.801Z,10.26
2022-12-06T14:16:19.972Z,9.70
2022-12-06T14:18:47.953Z,9.67
2022-12-06T14:21:22.360Z,9.59
2022-12-06T14:23:51.572Z,9.63
2022-12-06T14:26:24.953Z,9.81
2022-12-06T14:28:54.353Z,9.82
2022-12-06T14:31:25.654Z,9.99
2022-12-06T14:33:54.616Z,9.57
2022-12-06T14:36:25.926Z,9.84
2022-12-06T14:39:01.439Z,9.39
2022-12-06T14:41:52.284Z,9.36
2022-12-06T14:44:21.387Z,9.53
2022-12-06T14:46:50.257Z,9.74
2022-12-06T14:49:37.951Z,9.76
2022-12-06T14:52:18.521Z,9.63
2022-12-06T14:54:48.259Z,9.71
2022-12-06T14:57:26.859Z,9.73
2022-12-06T15:00:15.159Z,9.71
2022-12-06T15:03:01.030Z,9.61
2022-12-06T15:05:37.211Z,9.26
2022-12-06T15:08:30.166Z,9.31
2022-12-06T15:11:01.083Z,9.04
2022-12-06T15:13:29.222Z,9.05
2022-12-06T15:16:08.138Z,9.15
2022-12-06T15:18:38.256Z,9.19
2022-12-06T15:21:12.477Z,9.39
2022-12-06T15:23:43.008Z,9.33
2022-12-06T15:26:13.288Z,9.38
2022-12-06T15:28:41.244Z,9.38
2022-12-06T15:31:17.465Z,9.05
2022-12-06T15:33:46.019Z,9.16
2022-12-06T15:36:17.940Z,9.08
2022-12-06T15:38:46.562Z,9.00
2022-12-06T15:41:17.631Z,8.87
2022-12-06T15:43:46.032Z,9.13
2022-12-06T15:46:18.631Z,9.26
2022-12-06T15:48:46.571Z,9.25
2022-12-06T15:51:20.311Z,9.06
2022-12-06T15:53:49.824Z,8.83
2022-12-06T15:56:21.105Z,8.97
2022-12-06T15:58:49.367Z,9.17
2022-12-06T16:01:19.627Z,9.16
2022-12-06T16:03:47.693Z,9.25
2022-12-06T16:06:17.028Z,9.26
2022-12-06T16:08:45.642Z,9.44
2022-12-06T16:11:15.995Z,9.12
2022-12-06T16:13:45.600Z,8.87
2022-12-06T16:16:13.963Z,8.75
2022-12-06T16:18:41.852Z,8.74
2022-12-06T16:21:20.630Z,8.81
2022-12-06T16:24:13.068Z,8.82
2022-12-06T16:26:44.158Z,8.90
2022-12-06T16:29:14.840Z,8.71
2022-12-06T16:31:42.715Z,8.72
2022-12-06T16:34:11.020Z,8.76
2022-12-06T16:36:54.490Z,8.53
2022-12-06T16:39:22.784Z,8.09
2022-12-06T16:41:50.592Z,8.23
2022-12-06T16:44:19.901Z,8.17
2022-12-06T16:46:47.747Z,8.05
2022-12-06T16:52:06.806Z,7.89
2022-12-06T16:54:34.709Z,7.88
2022-12-06T16:57:02.654Z,7.95
2022-12-06T16:59:31.899Z,8.11
2022-12-06T17:02:00.392Z,8.14
2022-12-06T17:04:30.662Z,8.12
2022-12-06T17:06:58.591Z,8.31
2022-12-06T17:09:26.695Z,8.29
2022-12-06T17:12:06.022Z,8.20
2022-12-06T17:14:36.088Z,8.20
2022-12-06T17:17:04.416Z,8.30
2022-12-06T17:19:33.568Z,8.29
2022-12-06T17:22:02.298Z,8.21
2022-12-06T17:24:30.576Z,8.01
2022-12-06T17:26:58.983Z,8.17
2022-12-06T17:29:28.423Z,8.17
2022-12-06T17:31:58.059Z,8.31
2022-12-06T17:34:26.439Z,8.41
2022-12-06T17:36:55.057Z,8.08
2022-12-06T17:39:22.946Z,8.15
2022-12-06T17:42:08.063Z,7.99
2022-12-06T17:44:36.106Z,8.36
2022-12-06T17:47:05.669Z,7.95
2022-12-06T17:49:35.833Z,7.90
2022-12-06T17:52:03.775Z,7.83
2022-12-06T17:54:31.699Z,7.91
2022-12-06T17:56:59.567Z,8.13
2022-12-06T17:59:30.267Z,8.29
2022-12-06T18:02:16.431Z,8.18
2022-12-06T18:04:47.313Z,8.05
2022-12-06T18:07:15.734Z,7.86
2022-12-06T18:09:43.557Z,7.99
2022-12-06T18:12:12.854Z,8.36
2022-12-06T18:14:40.747Z,8.16
2022-12-06T18:17:08.795Z,8.15
2022-12-06T18:19:36.716Z,8.06
2022-12-06T18:22:05.843Z,7.75
2022-12-06T18:24:35.856Z,7.91
2022-12-06T18:27:04.931Z,7.97
2022-12-06T18:29:32.980Z,7.90
2022-12-06T18:32:00.834Z,7.98
2022-12-06T18:34:28.662Z,8.10
2022-12-06T18:36:56.463Z,8.58
2022-12-06T18:39:25.617Z,8.30
2022-12-06T18:41:54.118Z,8.37
2022-12-06T18:44:22.035Z,8.20
2022-12-06T18:46:49.833Z,8.22
2022-12-06T18:49:17.742Z,8.18
2022-12-06T18:51:45.607Z,7.69
2022-12-06T18:54:14.628Z,7.69
2022-12-06T18:56:43.834Z,7.56
2022-12-06T18:59:12.890Z,7.84
2022-12-06T19:01:41.852Z,8.14
2022-12-06T19:04:13.116Z,8.21
2022-12-06T19:06:41.199Z,8.05
2022-12-06T19:09:10.461Z,8.11
2022-12-06T19:11:38.825Z,7.84
2022-12-06T19:14:08.189Z,8.02
2022-12-06T19:16:37.774Z,8.57
2022-12-06T19:19:11.438Z,8.37
2022-12-06T19:21:43.746Z,8.54
2022-12-06T19:24:12.653Z,8.33
2022-12-06T19:26:40.508Z,7.82
2022-12-06T19:29:10.755Z,8.09
2022-12-06T19:31:38.728Z,8.01
2022-12-06T19:34:06.723Z,8.11
2022-12-06T19:36:34.511Z,7.98
2022-12-06T19:39:04.306Z,7.84
2022-12-06T19:41:32.115Z,7.92
2022-12-06T19:44:17.116Z,7.99
2022-12-06T19:46:47.447Z,7.54
2022-12-06T19:49:17.582Z,7.78
2022-12-06T19:51:46.720Z,7.26
2022-12-06T19:54:16.606Z,7.72
2022-12-06T19:56:44.368Z,7.58
2022-12-06T19:59:12.546Z,7.72
2022-12-06T20:01:41.754Z,7.22
2022-12-06T20:04:14.828Z,7.47
2022-12-06T20:06:42.666Z,7.59
2022-12-06T20:09:10.429Z,7.77
2022-12-06T20:11:56.606Z,7.89
2022-12-06T20:14:24.660Z,7.78
2022-12-06T20:16:52.684Z,7.75
2022-12-06T20:19:22.296Z,7.83
2022-12-06T20:21:50.499Z,7.78
2022-12-06T20:24:19.932Z,7.68
2022-12-06T20:26:49.228Z,8.21
2022-12-06T20:29:17.880Z,7.84
2022-12-06T20:31:46.004Z,7.71
2022-12-06T20:34:15.696Z,8.11
2022-12-06T20:36:45.279Z,7.81
2022-12-06T20:39:20.831Z,7.93
2022-12-06T20:41:49.438Z,7.80
2022-12-06T20:44:17.741Z,7.54
2022-12-06T20:46:45.671Z,7.66
2022-12-06T20:49:14.043Z,7.65
2022-12-06T20:51:42.470Z,7.56
2022-12-06T20:54:12.805Z,7.89
2022-12-06T20:56:42.401Z,7.77
2022-12-06T20:59:10.925Z,7.35
2022-12-06T21:01:40.548Z,7.32
2022-12-06T21:04:09.268Z,7.38
2022-12-06T21:06:37.105Z,7.61
2022-12-06T21:09:05.048Z,7.52
2022-12-06T21:11:34.287Z,7.66
2022-12-06T21:14:03.301Z,7.82
2022-12-06T21:16:32.087Z,7.91
2022-12-06T21:19:01.674Z,7.71
2022-12-06T21:21:32.276Z,7.94
2022-12-06T21:24:00.579Z,7.98
2022-12-06T21:26:28.995Z,7.75
2022-12-06T21:28:58.137Z,7.93
2022-12-06T21:31:27.897Z,8.16
2022-12-06T21:33:56.079Z,7.99
2022-12-06T21:36:24.391Z,8.14
2022-12-06T21:38:52.332Z,8.13
2022-12-06T21:41:20.173Z,8.30
2022-12-06T21:43:48.203Z,8.30
2022-12-06T21:46:20.066Z,8.32
2022-12-06T21:48:51.339Z,7.96
2022-12-06T21:51:19.532Z,7.99
2022-12-06T21:53:47.277Z,7.99
2022-12-06T21:56:17.147Z,7.64
2022-12-06T21:58:45.000Z,7.86
2022-12-06T22:01:15.305Z,7.76
2022-12-06T22:03:44.727Z,7.89
2022-12-06T22:06:13.712Z,7.77
2022-12-06T22:08:43.083Z,7.90
2022-12-06T22:11:12.430Z,7.94
2022-12-06T22:13:40.300Z,8.39
2022-12-06T22:16:10.441Z,7.82
2022-12-06T22:18:44.778Z,7.94
2022-12-06T22:21:17.170Z,8.19
2022-12-06T22:23:45.156Z,8.25
2022-12-06T22:26:15.544Z,8.22
2022-12-06T22:28:43.743Z,7.65
2022-12-06T22:31:12.949Z,7.41
2022-12-06T22:33:40.868Z,7.65
2022-12-06T22:36:09.910Z,7.95
2022-12-06T22:38:39.057Z,7.88
2022-12-06T22:41:07.618Z,7.49
2022-12-06T22:43:36.188Z,7.44
2022-12-06T22:46:05.177Z,7.58
2022-12-06T22:48:33.164Z,7.76
2022-12-06T22:51:11.796Z,7.62
2022-12-06T22:53:41.661Z,8.10
2022-12-06T22:56:09.762Z,8.16
2022-12-06T22:58:37.729Z,7.83
2022-12-06T23:01:16.537Z,7.63
2022-12-06T23:03:45.180Z,7.91
2022-12-06T23:06:13.678Z,7.51
2022-12-06T23:08:43.197Z,7.89
2022-12-06T23:11:14.333Z,7.98
2022-12-06T23:13:42.251Z,7.86
2022-12-06T23:16:12.322Z,7.82
2022-12-06T23:18:40.308Z,7.71
2022-12-06T23:21:11.449Z,7.88
2022-12-06T23:23:39.842Z,7.76
2022-12-06T23:26:11.120Z,7.87
2022-12-06T23:28:39.399Z,7.85
2022-12-06T23:31:11.057Z,7.82
2022-12-06T23:33:38.960Z,8.20
2022-12-06T23:36:09.315Z,8.46
2022-12-06T23:38:37.607Z,7.98
2022-12-06T23:41:06.783Z,8.14
2022-12-06T23:43:36.459Z,8.48
2022-12-06T23:46:07.717Z,8.86
2022-12-06T23:48:36.077Z,8.57
2022-12-06T23:51:05.673Z,8.95
2022-12-06T23:53:33.984Z,8.89
2022-12-06T23:56:03.078Z,8.48
2022-12-06T23:58:31.082Z,8.34
